sensor_id;sensor_type;location;lat;lon;timestamp;P1;durP1;ratioP1;P2;durP2;ratioP2
43823;SDS011;29470;53.550;9.926;2022-12-20T00:03:26;16.05;;;7.95;;
43823;SDS011;29470;53.550;9.926;2022-12-20T00:08:29;12.88;;;7.65;;
43823;SDS011;29470;53.550;9.926;2022-12-20T00:13:32;13.32;;;7.72;;
43823;SDS011;29470;53.550;9.926;2022-12-20T00:18:37;13.95;;;7.43;;
43823;SDS011;29470;53.550;9.926;2022-12-20T00:23:40;16.02;;;7.63;;
43823;SDS011;29470;53.550;9.926;2022-12-20T00:28:43;14.05;;;7.80;;
43823;SDS011;29470;53.550;9.926;2022-12-20T00:33:49;14.70;;;7.68;;
43823;SDS011;29470;53.550;9.926;2022-12-20T00:38:54;12.48;;;7.40;;
43823;SDS011;29470;53.550;9.926;2022-12-20T00:43:58;14.18;;;7.82;;
43823;SDS011;29470;53.550;9.926;2022-12-20T00:49:02;15.07;;;8.07;;
43823;SDS011;29470;53.550;9.926;2022-12-20T00:54:05;14.75;;;7.53;;
43823;SDS011;29470;53.550;9.926;2022-12-20T00:59:08;15.60;;;7.88;;
43823;SDS011;29470;53.550;9.926;2022-12-20T01:04:12;14.52;;;8.15;;
43823;SDS011;29470;53.550;9.926;2022-12-20T01:09:15;14.85;;;7.95;;
43823;SDS011;29470;53.550;9.926;2022-12-20T01:14:18;15.25;;;7.70;;
43823;SDS011;29470;53.550;9.926;2022-12-20T01:19:22;12.95;;;7.40;;
43823;SDS011;29470;53.550;9.926;2022-12-20T01:24:25;13.90;;;8.15;;
43823;SDS011;29470;53.550;9.926;2022-12-20T01:29:28;15.15;;;7.38;;
43823;SDS011;29470;53.550;9.926;2022-12-20T01:35:13;12.65;;;7.22;;
43823;SDS011;29470;53.550;9.926;2022-12-20T01:40:16;12.05;;;7.13;;
43823;SDS011;29470;53.550;9.926;2022-12-20T01:45:22;14.10;;;6.75;;
43823;SDS011;29470;53.550;9.926;2022-12-20T01:50:30;10.77;;;6.53;;
43823;SDS011;29470;53.550;9.926;2022-12-20T01:55:33;13.70;;;7.20;;
43823;SDS011;29470;53.550;9.926;2022-12-20T02:00:37;11.23;;;7.22;;
43823;SDS011;29470;53.550;9.926;2022-12-20T02:05:43;10.48;;;6.43;;
43823;SDS011;29470;53.550;9.926;2022-12-20T02:10:53;11.48;;;6.50;;
43823;SDS011;29470;53.550;9.926;2022-12-20T02:16:09;11.32;;;6.32;;
43823;SDS011;29470;53.550;9.926;2022-12-20T02:21:21;13.50;;;7.13;;
43823;SDS011;29470;53.550;9.926;2022-12-20T02:26:33;14.05;;;6.90;;
43823;SDS011;29470;53.550;9.926;2022-12-20T02:31:48;10.10;;;6.00;;
43823;SDS011;29470;53.550;9.926;2022-12-20T02:36:57;10.73;;;5.97;;
43823;SDS011;29470;53.550;9.926;2022-12-20T02:42:01;10.25;;;6.10;;
43823;SDS011;29470;53.550;9.926;2022-12-20T02:47:09;11.82;;;6.22;;
43823;SDS011;29470;53.550;9.926;2022-12-20T02:52:15;10.40;;;6.28;;
43823;SDS011;29470;53.550;9.926;2022-12-20T02:57:21;9.82;;;6.07;;
43823;SDS011;29470;53.550;9.926;2022-12-20T03:02:32;10.88;;;6.20;;
43823;SDS011;29470;53.550;9.926;2022-12-20T03:07:57;10.88;;;6.20;;
43823;SDS011;29470;53.550;9.926;2022-12-20T03:13:00;9.98;;;5.50;;
43823;SDS011;29470;53.550;9.926;2022-12-20T03:18:06;11.00;;;6.50;;
43823;SDS011;29470;53.550;9.926;2022-12-20T03:23:09;11.95;;;6.20;;
43823;SDS011;29470;53.550;9.926;2022-12-20T03:28:13;13.57;;;6.90;;
43823;SDS011;29470;53.550;9.926;2022-12-20T03:33:17;10.52;;;5.45;;
43823;SDS011;29470;53.550;9.926;2022-12-20T03:38:21;10.68;;;5.97;;
43823;SDS011;29470;53.550;9.926;2022-12-20T03:43:24;11.77;;;6.00;;
43823;SDS011;29470;53.550;9.926;2022-12-20T03:48:28;11.90;;;5.90;;
43823;SDS011;29470;53.550;9.926;2022-12-20T03:53:31;9.30;;;5.85;;
43823;SDS011;29470;53.550;9.926;2022-12-20T03:58:34;9.45;;;5.65;;
43823;SDS011;29470;53.550;9.926;2022-12-20T04:03:39;9.60;;;5.70;;
43823;SDS011;29470;53.550;9.926;2022-12-20T04:08:42;9.75;;;5.85;;
43823;SDS011;29470;53.550;9.926;2022-12-20T04:13:51;10.18;;;6.00;;
43823;SDS011;29470;53.550;9.926;2022-12-20T04:18:57;9.18;;;5.65;;
43823;SDS011;29470;53.550;9.926;2022-12-20T04:24:03;11.33;;;5.93;;
43823;SDS011;29470;53.550;9.926;2022-12-20T04:29:39;9.57;;;5.07;;
43823;SDS011;29470;53.550;9.926;2022-12-20T04:34:46;9.25;;;5.18;;
43823;SDS011;29470;53.550;9.926;2022-12-20T04:39:50;12.02;;;5.60;;
43823;SDS011;29470;53.550;9.926;2022-12-20T04:45:19;9.95;;;5.53;;
43823;SDS011;29470;53.550;9.926;2022-12-20T04:50:24;10.48;;;5.30;;
43823;SDS011;29470;53.550;9.926;2022-12-20T04:55:27;7.97;;;5.18;;
43823;SDS011;29470;53.550;9.926;2022-12-20T05:00:32;9.30;;;5.50;;
43823;SDS011;29470;53.550;9.926;2022-12-20T05:05:45;11.02;;;5.28;;
43823;SDS011;29470;53.550;9.926;2022-12-20T05:10:48;11.32;;;5.57;;
43823;SDS011;29470;53.550;9.926;2022-12-20T05:15:51;11.32;;;6.10;;
43823;SDS011;29470;53.550;9.926;2022-12-20T05:21:00;12.45;;;5.68;;
43823;SDS011;29470;53.550;9.926;2022-12-20T05:26:23;10.38;;;5.75;;
43823;SDS011;29470;53.550;9.926;2022-12-20T05:31:28;8.77;;;5.50;;
43823;SDS011;29470;53.550;9.926;2022-12-20T05:36:33;10.90;;;6.32;;
43823;SDS011;29470;53.550;9.926;2022-12-20T05:41:38;9.48;;;5.35;;
43823;SDS011;29470;53.550;9.926;2022-12-20T05:46:41;10.35;;;6.05;;
43823;SDS011;29470;53.550;9.926;2022-12-20T05:51:51;9.17;;;5.80;;
43823;SDS011;29470;53.550;9.926;2022-12-20T05:56:57;10.03;;;5.83;;
43823;SDS011;29470;53.550;9.926;2022-12-20T06:02:07;10.02;;;5.90;;
43823;SDS011;29470;53.550;9.926;2022-12-20T06:07:13;9.55;;;5.70;;
43823;SDS011;29470;53.550;9.926;2022-12-20T06:12:20;11.27;;;6.43;;
43823;SDS011;29470;53.550;9.926;2022-12-20T06:17:24;13.38;;;6.70;;
43823;SDS011;29470;53.550;9.926;2022-12-20T06:22:28;9.75;;;5.90;;
43823;SDS011;29470;53.550;9.926;2022-12-20T06:27:31;11.15;;;5.93;;
43823;SDS011;29470;53.550;9.926;2022-12-20T06:32:45;11.38;;;6.05;;
43823;SDS011;29470;53.550;9.926;2022-12-20T06:37:50;11.15;;;6.40;;
43823;SDS011;29470;53.550;9.926;2022-12-20T06:42:54;11.15;;;5.57;;
43823;SDS011;29470;53.550;9.926;2022-12-20T06:47:58;11.15;;;5.97;;
43823;SDS011;29470;53.550;9.926;2022-12-20T06:53:05;10.85;;;5.90;;
43823;SDS011;29470;53.550;9.926;2022-12-20T06:58:08;11.40;;;6.32;;
43823;SDS011;29470;53.550;9.926;2022-12-20T07:03:12;9.43;;;5.63;;
43823;SDS011;29470;53.550;9.926;2022-12-20T07:08:16;9.50;;;5.85;;
43823;SDS011;29470;53.550;9.926;2022-12-20T07:13:19;10.85;;;6.18;;
43823;SDS011;29470;53.550;9.926;2022-12-20T07:18:22;13.13;;;6.15;;
43823;SDS011;29470;53.550;9.926;2022-12-20T07:23:27;10.95;;;6.80;;
43823;SDS011;29470;53.550;9.926;2022-12-20T07:28:30;9.65;;;6.53;;
43823;SDS011;29470;53.550;9.926;2022-12-20T07:33:33;12.93;;;6.75;;
43823;SDS011;29470;53.550;9.926;2022-12-20T07:38:38;12.48;;;7.10;;
43823;SDS011;29470;53.550;9.926;2022-12-20T07:43:41;10.50;;;6.75;;
43823;SDS011;29470;53.550;9.926;2022-12-20T07:48:44;11.48;;;6.75;;
43823;SDS011;29470;53.550;9.926;2022-12-20T07:53:50;10.23;;;6.88;;
43823;SDS011;29470;53.550;9.926;2022-12-20T07:58:56;11.95;;;6.85;;
43823;SDS011;29470;53.550;9.926;2022-12-20T08:04:03;11.77;;;7.10;;
43823;SDS011;29470;53.550;9.926;2022-12-20T08:09:11;10.27;;;5.72;;
43823;SDS011;29470;53.550;9.926;2022-12-20T08:14:15;9.05;;;6.13;;
43823;SDS011;29470;53.550;9.926;2022-12-20T08:19:19;9.43;;;5.90;;
43823;SDS011;29470;53.550;9.926;2022-12-20T08:24:32;13.40;;;6.30;;
43823;SDS011;29470;53.550;9.926;2022-12-20T08:29:35;12.27;;;6.72;;
43823;SDS011;29470;53.550;9.926;2022-12-20T08:34:38;9.25;;;5.80;;
43823;SDS011;29470;53.550;9.926;2022-12-20T08:39:42;11.00;;;5.88;;
43823;SDS011;29470;53.550;9.926;2022-12-20T08:44:45;7.97;;;5.28;;
43823;SDS011;29470;53.550;9.926;2022-12-20T08:49:48;10.52;;;5.68;;
43823;SDS011;29470;53.550;9.926;2022-12-20T08:54:52;10.50;;;5.82;;
43823;SDS011;29470;53.550;9.926;2022-12-20T08:59:55;13.27;;;7.32;;
43823;SDS011;29470;53.550;9.926;2022-12-20T09:04:58;8.63;;;5.70;;
43823;SDS011;29470;53.550;9.926;2022-12-20T09:10:02;9.02;;;6.25;;
43823;SDS011;29470;53.550;9.926;2022-12-20T09:15:06;8.80;;;5.57;;
43823;SDS011;29470;53.550;9.926;2022-12-20T09:20:10;12.05;;;6.05;;
43823;SDS011;29470;53.550;9.926;2022-12-20T09:25:14;10.77;;;6.55;;
43823;SDS011;29470;53.550;9.926;2022-12-20T09:30:17;67.13;;;11.32;;
43823;SDS011;29470;53.550;9.926;2022-12-20T09:35:20;12.68;;;6.25;;
43823;SDS011;29470;53.550;9.926;2022-12-20T09:40:26;9.70;;;5.55;;
43823;SDS011;29470;53.550;9.926;2022-12-20T09:45:34;10.05;;;6.30;;
43823;SDS011;29470;53.550;9.926;2022-12-20T09:50:41;13.02;;;6.85;;
43823;SDS011;29470;53.550;9.926;2022-12-20T09:55:57;11.75;;;6.63;;
43823;SDS011;29470;53.550;9.926;2022-12-20T10:01:10;9.95;;;5.85;;
43823;SDS011;29470;53.550;9.926;2022-12-20T10:06:28;9.95;;;6.60;;
43823;SDS011;29470;53.550;9.926;2022-12-20T10:11:43;11.90;;;6.55;;
43823;SDS011;29470;53.550;9.926;2022-12-20T10:16:57;12.50;;;7.10;;
43823;SDS011;29470;53.550;9.926;2022-12-20T10:22:07;11.80;;;6.20;;
43823;SDS011;29470;53.550;9.926;2022-12-20T10:27:18;11.88;;;6.18;;
43823;SDS011;29470;53.550;9.926;2022-12-20T10:32:23;9.55;;;6.00;;
43823;SDS011;29470;53.550;9.926;2022-12-20T10:37:28;9.98;;;6.15;;
43823;SDS011;29470;53.550;9.926;2022-12-20T10:42:35;10.90;;;6.47;;
43823;SDS011;29470;53.550;9.926;2022-12-20T10:47:41;10.02;;;5.85;;
43823;SDS011;29470;53.550;9.926;2022-12-20T10:53:02;11.15;;;5.13;;
43823;SDS011;29470;53.550;9.926;2022-12-20T10:58:29;11.07;;;5.38;;
43823;SDS011;29470;53.550;9.926;2022-12-20T11:03:37;7.68;;;4.60;;
43823;SDS011;29470;53.550;9.926;2022-12-20T11:08:51;7.78;;;4.97;;
43823;SDS011;29470;53.550;9.926;2022-12-20T11:14:12;6.57;;;4.90;;
43823;SDS011;29470;53.550;9.926;2022-12-20T11:19:29;9.88;;;4.40;;
43823;SDS011;29470;53.550;9.926;2022-12-20T11:24:41;8.50;;;4.05;;
43823;SDS011;29470;53.550;9.926;2022-12-20T11:29:58;6.90;;;4.10;;
43823;SDS011;29470;53.550;9.926;2022-12-20T11:35:10;6.18;;;4.18;;
43823;SDS011;29470;53.550;9.926;2022-12-20T11:40:23;6.82;;;4.07;;
43823;SDS011;29470;53.550;9.926;2022-12-20T11:45:39;6.78;;;4.03;;
43823;SDS011;29470;53.550;9.926;2022-12-20T11:50:51;8.00;;;4.37;;
43823;SDS011;29470;53.550;9.926;2022-12-20T11:56:05;9.07;;;4.32;;
43823;SDS011;29470;53.550;9.926;2022-12-20T12:01:14;6.90;;;4.43;;
43823;SDS011;29470;53.550;9.926;2022-12-20T12:06:21;9.55;;;5.07;;
43823;SDS011;29470;53.550;9.926;2022-12-20T12:11:28;6.80;;;4.40;;
43823;SDS011;29470;53.550;9.926;2022-12-20T12:16:56;6.82;;;4.30;;
43823;SDS011;29470;53.550;9.926;2022-12-20T12:22:04;7.25;;;4.35;;
43823;SDS011;29470;53.550;9.926;2022-12-20T12:27:14;8.55;;;4.78;;
43823;SDS011;29470;53.550;9.926;2022-12-20T12:32:24;8.18;;;4.47;;
43823;SDS011;29470;53.550;9.926;2022-12-20T12:37:38;11.13;;;4.97;;
43823;SDS011;29470;53.550;9.926;2022-12-20T12:43:01;8.25;;;5.00;;
43823;SDS011;29470;53.550;9.926;2022-12-20T12:48:15;10.52;;;5.32;;
43823;SDS011;29470;53.550;9.926;2022-12-20T12:53:25;10.38;;;6.10;;
43823;SDS011;29470;53.550;9.926;2022-12-20T12:58:35;8.52;;;5.47;;
43823;SDS011;29470;53.550;9.926;2022-12-20T13:04:08;18.08;;;6.40;;
43823;SDS011;29470;53.550;9.926;2022-12-20T13:09:19;13.82;;;6.65;;
43823;SDS011;29470;53.550;9.926;2022-12-20T13:19:52;8.80;;;5.38;;
43823;SDS011;29470;53.550;9.926;2022-12-20T13:24:58;12.25;;;7.47;;
43823;SDS011;29470;53.550;9.926;2022-12-20T13:35:31;11.27;;;6.90;;
43823;SDS011;29470;53.550;9.926;2022-12-20T13:40:47;11.70;;;6.32;;
43823;SDS011;29470;53.550;9.926;2022-12-20T13:45:53;10.32;;;6.05;;
43823;SDS011;29470;53.550;9.926;2022-12-20T13:51:03;10.90;;;5.82;;
43823;SDS011;29470;53.550;9.926;2022-12-20T13:56:19;11.40;;;6.20;;
43823;SDS011;29470;53.550;9.926;2022-12-20T14:01:33;14.98;;;6.85;;
43823;SDS011;29470;53.550;9.926;2022-12-20T14:06:39;10.93;;;6.05;;
43823;SDS011;29470;53.550;9.926;2022-12-20T14:11:45;9.63;;;5.55;;
43823;SDS011;29470;53.550;9.926;2022-12-20T14:16:48;11.02;;;6.20;;
43823;SDS011;29470;53.550;9.926;2022-12-20T14:21:53;13.25;;;7.22;;
43823;SDS011;29470;53.550;9.926;2022-12-20T14:26:57;10.45;;;6.18;;
43823;SDS011;29470;53.550;9.926;2022-12-20T14:32:02;9.32;;;5.60;;
43823;SDS011;29470;53.550;9.926;2022-12-20T14:37:27;9.40;;;5.35;;
43823;SDS011;29470;53.550;9.926;2022-12-20T14:42:33;9.63;;;5.75;;
43823;SDS011;29470;53.550;9.926;2022-12-20T14:47:45;12.20;;;6.50;;
43823;SDS011;29470;53.550;9.926;2022-12-20T14:52:51;12.40;;;6.28;;
43823;SDS011;29470;53.550;9.926;2022-12-20T14:57:55;14.10;;;7.15;;
43823;SDS011;29470;53.550;9.926;2022-12-20T15:03:00;11.13;;;6.50;;
43823;SDS011;29470;53.550;9.926;2022-12-20T15:08:10;13.45;;;6.90;;
43823;SDS011;29470;53.550;9.926;2022-12-20T15:13:15;10.30;;;6.07;;
43823;SDS011;29470;53.550;9.926;2022-12-20T15:18:20;10.25;;;6.00;;
43823;SDS011;29470;53.550;9.926;2022-12-20T15:23:24;11.73;;;7.30;;
43823;SDS011;29470;53.550;9.926;2022-12-20T15:28:27;12.23;;;7.07;;
43823;SDS011;29470;53.550;9.926;2022-12-20T15:33:31;12.07;;;6.88;;
43823;SDS011;29470;53.550;9.926;2022-12-20T15:38:37;10.13;;;6.57;;
43823;SDS011;29470;53.550;9.926;2022-12-20T15:44:01;10.65;;;6.10;;
43823;SDS011;29470;53.550;9.926;2022-12-20T15:49:08;13.40;;;6.95;;
43823;SDS011;29470;53.550;9.926;2022-12-20T15:54:18;12.80;;;6.25;;
43823;SDS011;29470;53.550;9.926;2022-12-20T15:59:24;12.82;;;6.95;;
43823;SDS011;29470;53.550;9.926;2022-12-20T16:04:47;13.32;;;6.80;;
43823;SDS011;29470;53.550;9.926;2022-12-20T16:16:08;11.98;;;6.78;;
43823;SDS011;29470;53.550;9.926;2022-12-20T16:22:07;10.20;;;6.17;;
43823;SDS011;29470;53.550;9.926;2022-12-20T16:33:09;11.82;;;6.68;;
43823;SDS011;29470;53.550;9.926;2022-12-20T16:38:22;10.93;;;6.57;;
43823;SDS011;29470;53.550;9.926;2022-12-20T16:43:26;13.50;;;7.00;;
43823;SDS011;29470;53.550;9.926;2022-12-20T16:48:38;11.23;;;6.63;;
43823;SDS011;29470;53.550;9.926;2022-12-20T16:53:42;11.40;;;7.13;;
43823;SDS011;29470;53.550;9.926;2022-12-20T17:05:10;15.43;;;8.90;;
43823;SDS011;29470;53.550;9.926;2022-12-20T17:10:22;10.55;;;6.28;;
43823;SDS011;29470;53.550;9.926;2022-12-20T17:15:27;11.57;;;6.78;;
43823;SDS011;29470;53.550;9.926;2022-12-20T17:20:33;10.65;;;6.63;;
43823;SDS011;29470;53.550;9.926;2022-12-20T17:25:38;20.98;;;10.85;;
43823;SDS011;29470;53.550;9.926;2022-12-20T17:30:42;10.45;;;7.20;;
43823;SDS011;29470;53.550;9.926;2022-12-20T17:35:47;13.90;;;7.78;;
43823;SDS011;29470;53.550;9.926;2022-12-20T17:40:50;13.30;;;7.28;;
43823;SDS011;29470;53.550;9.926;2022-12-20T17:45:53;13.25;;;7.30;;
43823;SDS011;29470;53.550;9.926;2022-12-20T17:50:57;11.25;;;7.15;;
43823;SDS011;29470;53.550;9.926;2022-12-20T17:56:00;11.02;;;7.05;;
43823;SDS011;29470;53.550;9.926;2022-12-20T18:01:03;13.40;;;8.55;;
43823;SDS011;29470;53.550;9.926;2022-12-20T18:06:15;11.50;;;7.00;;
43823;SDS011;29470;53.550;9.926;2022-12-20T18:11:18;13.68;;;8.15;;
43823;SDS011;29470;53.550;9.926;2022-12-20T18:16:22;12.38;;;7.80;;
43823;SDS011;29470;53.550;9.926;2022-12-20T18:21:28;12.70;;;7.95;;
43823;SDS011;29470;53.550;9.926;2022-12-20T18:26:31;14.63;;;8.15;;
43823;SDS011;29470;53.550;9.926;2022-12-20T18:31:34;14.68;;;7.82;;
43823;SDS011;29470;53.550;9.926;2022-12-20T18:36:38;12.25;;;7.75;;
43823;SDS011;29470;53.550;9.926;2022-12-20T18:41:41;12.52;;;7.82;;
43823;SDS011;29470;53.550;9.926;2022-12-20T18:46:44;16.75;;;9.18;;
43823;SDS011;29470;53.550;9.926;2022-12-20T18:51:57;13.63;;;8.40;;
43823;SDS011;29470;53.550;9.926;2022-12-20T18:57:33;16.83;;;8.90;;
43823;SDS011;29470;53.550;9.926;2022-12-20T19:02:51;14.80;;;9.13;;
43823;SDS011;29470;53.550;9.926;2022-12-20T19:08:20;15.23;;;8.93;;
43823;SDS011;29470;53.550;9.926;2022-12-20T19:13:27;14.68;;;9.35;;
43823;SDS011;29470;53.550;9.926;2022-12-20T19:18:30;15.32;;;8.90;;
43823;SDS011;29470;53.550;9.926;2022-12-20T19:23:34;16.75;;;10.50;;
43823;SDS011;29470;53.550;9.926;2022-12-20T19:28:39;18.95;;;10.60;;
43823;SDS011;29470;53.550;9.926;2022-12-20T19:33:44;19.15;;;10.18;;
43823;SDS011;29470;53.550;9.926;2022-12-20T19:38:49;21.50;;;11.68;;
43823;SDS011;29470;53.550;9.926;2022-12-20T19:43:54;24.98;;;13.02;;
43823;SDS011;29470;53.550;9.926;2022-12-20T19:48:58;24.02;;;13.63;;
43823;SDS011;29470;53.550;9.926;2022-12-20T19:54:03;21.48;;;13.07;;
43823;SDS011;29470;53.550;9.926;2022-12-20T19:59:06;25.67;;;14.30;;
43823;SDS011;29470;53.550;9.926;2022-12-20T20:04:17;23.52;;;13.57;;
43823;SDS011;29470;53.550;9.926;2022-12-20T20:09:25;22.58;;;13.52;;
43823;SDS011;29470;53.550;9.926;2022-12-20T20:14:39;21.92;;;13.43;;
43823;SDS011;29470;53.550;9.926;2022-12-20T20:19:42;24.88;;;12.82;;
43823;SDS011;29470;53.550;9.926;2022-12-20T20:24:48;23.15;;;13.18;;
43823;SDS011;29470;53.550;9.926;2022-12-20T20:29:51;23.13;;;13.77;;
43823;SDS011;29470;53.550;9.926;2022-12-20T20:34:57;26.30;;;16.05;;
43823;SDS011;29470;53.550;9.926;2022-12-20T20:40:01;22.52;;;14.65;;
43823;SDS011;29470;53.550;9.926;2022-12-20T20:45:05;25.40;;;15.00;;
43823;SDS011;29470;53.550;9.926;2022-12-20T20:50:09;31.33;;;17.00;;
43823;SDS011;29470;53.550;9.926;2022-12-20T20:55:14;30.00;;;16.83;;
43823;SDS011;29470;53.550;9.926;2022-12-20T21:00:17;30.25;;;16.40;;
43823;SDS011;29470;53.550;9.926;2022-12-20T21:05:20;30.02;;;16.98;;
43823;SDS011;29470;53.550;9.926;2022-12-20T21:10:45;31.00;;;17.35;;
43823;SDS011;29470;53.550;9.926;2022-12-20T21:15:48;31.13;;;17.52;;
43823;SDS011;29470;53.550;9.926;2022-12-20T21:20:51;34.78;;;18.15;;
43823;SDS011;29470;53.550;9.926;2022-12-20T21:25:56;32.72;;;18.25;;
43823;SDS011;29470;53.550;9.926;2022-12-20T21:30:59;31.40;;;17.75;;
43823;SDS011;29470;53.550;9.926;2022-12-20T21:36:03;34.58;;;19.33;;
43823;SDS011;29470;53.550;9.926;2022-12-20T21:41:11;38.72;;;22.15;;
43823;SDS011;29470;53.550;9.926;2022-12-20T21:46:14;32.80;;;18.27;;
43823;SDS011;29470;53.550;9.926;2022-12-20T21:51:19;30.05;;;16.13;;
43823;SDS011;29470;53.550;9.926;2022-12-20T21:56:25;31.60;;;17.67;;
43823;SDS011;29470;53.550;9.926;2022-12-20T22:01:29;28.70;;;16.20;;
43823;SDS011;29470;53.550;9.926;2022-12-20T22:06:33;41.25;;;21.38;;
43823;SDS011;29470;53.550;9.926;2022-12-20T22:11:37;29.73;;;17.15;;
43823;SDS011;29470;53.550;9.926;2022-12-20T22:16:41;31.38;;;17.60;;
43823;SDS011;29470;53.550;9.926;2022-12-20T22:21:46;27.38;;;15.73;;
43823;SDS011;29470;53.550;9.926;2022-12-20T22:26:59;27.33;;;15.75;;
43823;SDS011;29470;53.550;9.926;2022-12-20T22:32:09;28.55;;;15.88;;
43823;SDS011;29470;53.550;9.926;2022-12-20T22:37:12;27.98;;;16.27;;
43823;SDS011;29470;53.550;9.926;2022-12-20T22:42:16;28.48;;;15.57;;
43823;SDS011;29470;53.550;9.926;2022-12-20T22:47:23;30.38;;;16.67;;
43823;SDS011;29470;53.550;9.926;2022-12-20T22:52:26;29.17;;;16.20;;
43823;SDS011;29470;53.550;9.926;2022-12-20T22:57:30;31.13;;;17.27;;
43823;SDS011;29470;53.550;9.926;2022-12-20T23:02:38;31.27;;;16.73;;
43823;SDS011;29470;53.550;9.926;2022-12-20T23:07:42;32.05;;;17.05;;
43823;SDS011;29470;53.550;9.926;2022-12-20T23:12:47;33.28;;;16.95;;
43823;SDS011;29470;53.550;9.926;2022-12-20T23:18:08;37.92;;;19.63;;
43823;SDS011;29470;53.550;9.926;2022-12-20T23:23:11;30.23;;;17.20;;
43823;SDS011;29470;53.550;9.926;2022-12-20T23:28:15;30.48;;;15.82;;
43823;SDS011;29470;53.550;9.926;2022-12-20T23:33:18;28.50;;;14.82;;
43823;SDS011;29470;53.550;9.926;2022-12-20T23:38:21;27.77;;;14.50;;
43823;SDS011;29470;53.550;9.926;2022-12-20T23:43:31;30.52;;;15.10;;
43823;SDS011;29470;53.550;9.926;2022-12-20T23:48:34;24.65;;;13.38;;
43823;SDS011;29470;53.550;9.926;2022-12-20T23:53:37;27.15;;;14.55;;
43823;SDS011;29470;53.550;9.926;2022-12-20T23:58:42;27.17;;;14.45;;
